Time;durP1;ratioP1;P1;durP2;ratioP2;P2;SDS_P1;SDS_P2;PMS_P1;PMS_P2;Temp;Humidity;BMP_temperature;BMP_pressure;BME280_temperature;BME280_humidity;BME280_pressure;Samples;Min_cycle;Max_cycle;Signal;HPM_P1;HPM_P2
2022/04/21 00:00:33;;;;;;;10.73;7.30;;;;;;;-0.60;100.00;90759.22;5011243;28;20403;-69
2022/04/21 00:03:00;;;;;;;7.88;6.30;;;;;;;-0.62;100.00;90761.31;5011419;28;20033;-68
2022/04/21 00:05:25;;;;;;;7.97;6.68;;;;;;;-0.63;100.00;90759.72;5011405;28;20037;-69
2022/04/21 00:07:51;;;;;;;8.18;6.38;;;;;;;-0.56;100.00;90752.47;5011350;28;20500;-69
2022/04/21 00:10:17;;;;;;;8.35;6.53;;;;;;;-0.56;100.00;90762.13;5011219;28;20033;-69
2022/04/21 00:12:43;;;;;;;10.48;6.82;;;;;;;-0.55;100.00;90755.88;5011322;28;20034;-69
2022/04/21 00:15:10;;;;;;;9.98;7.18;;;;;;;-0.55;100.00;90751.44;5011210;28;20033;-69
2022/04/21 00:17:35;;;;;;;10.50;6.80;;;;;;;-0.58;100.00;90759.78;5011252;28;20033;-69
2022/04/21 00:20:01;;;;;;;9.52;7.05;;;;;;;-0.65;100.00;90767.00;5011156;28;20514;-69
2022/04/21 00:25:11;;;;;;;12.82;8.93;;;;;;;-0.79;100.00;90764.00;5011315;28;20562;-69
2022/04/21 00:27:42;;;;;;;14.30;7.50;;;;;;;-1.01;100.00;90747.53;5011237;28;20045;-69
2022/04/21 00:30:09;;;;;;;11.60;8.00;;;;;;;-1.00;100.00;90772.59;5010989;28;20045;-69
2022/04/21 00:32:35;;;;;;;9.32;7.43;;;;;;;-0.97;100.00;90772.91;5011048;28;20042;-69
2022/04/21 00:35:01;;;;;;;10.00;7.88;;;;;;;-0.92;100.00;90770.38;5011027;28;20033;-69
2022/04/21 00:37:27;;;;;;;8.93;7.05;;;;;;;-0.83;100.00;90767.31;5010995;28;20769;-69
2022/04/21 00:39:52;;;;;;;8.75;6.45;;;;;;;-0.70;100.00;90777.41;5010987;28;20037;-68
2022/04/21 00:42:18;;;;;;;8.57;6.57;;;;;;;-0.63;100.00;90778.81;5010986;28;20515;-68
2022/04/21 00:44:43;;;;;;;8.20;6.80;;;;;;;-0.72;100.00;90767.19;5010954;28;20471;-68
2022/04/21 00:47:10;;;;;;;9.07;7.00;;;;;;;-0.72;100.00;90774.25;5010910;28;20038;-68
2022/04/21 00:49:36;;;;;;;7.03;5.93;;;;;;;-0.59;100.00;90773.88;5010968;28;20077;-68
2022/04/21 00:52:02;;;;;;;8.90;6.50;;;;;;;-0.68;100.00;90770.09;5010821;28;20658;-68
2022/04/21 00:54:32;;;;;;;9.20;6.43;;;;;;;-0.66;100.00;90775.88;5010855;28;20126;-68
2022/04/21 00:56:59;;;;;;;7.35;6.20;;;;;;;-0.72;100.00;90769.03;5010883;28;20041;-67
2022/04/21 00:59:26;;;;;;;7.57;6.30;;;;;;;-0.56;100.00;90783.03;5014145;28;20030;-67
2022/04/21 01:04:39;;;;;;;8.02;7.03;;;;;;;-0.63;100.00;90770.19;5014604;28;20096;-67
2022/04/21 01:07:08;;;;;;;7.32;6.05;;;;;;;-0.67;100.00;90767.25;5014347;28;20048;-68
2022/04/21 01:09:35;;;;;;;8.65;6.70;;;;;;;-0.65;100.00;90756.53;5014256;28;20070;-68
2022/04/21 01:12:01;;;;;;;10.50;6.88;;;;;;;-0.68;100.00;90757.03;5014102;28;20042;-68
2022/04/21 01:14:27;;;;;;;18.10;9.68;;;;;;;-0.68;100.00;90757.03;5014105;28;20038;-68
2022/04/21 01:16:52;;;;;;;29.55;14.13;;;;;;;-0.79;100.00;90750.94;5014108;28;20046;-68
2022/04/21 01:19:18;;;;;;;18.55;10.82;;;;;;;-0.86;100.00;90752.16;5013947;28;20470;-68
2022/04/21 01:21:44;;;;;;;14.02;8.95;;;;;;;-0.85;100.00;90746.69;5013948;28;20077;-68
2022/04/21 01:24:09;;;;;;;17.58;10.48;;;;;;;-0.94;100.00;90743.72;5013933;28;20057;-68
2022/04/21 01:26:35;;;;;;;17.33;10.00;;;;;;;-1.04;100.00;90737.59;5013739;28;20080;-68
2022/04/21 01:29:07;;;;;;;14.68;9.10;;;;;;;-1.07;100.00;90733.66;5013931;28;20042;-68
2022/04/21 01:31:33;;;;;;;13.32;8.55;;;;;;;-1.05;100.00;90734.19;5013749;28;20074;-68
2022/04/21 01:33:58;;;;;;;16.13;9.50;;;;;;;-1.16;100.00;90740.31;5013818;28;20064;-68
2022/04/21 01:36:24;;;;;;;15.45;9.45;;;;;;;-1.28;100.00;90729.97;5013736;28;20109;-68
2022/04/21 01:41:34;;;;;;;14.98;9.98;;;;;;;-1.38;100.00;90736.91;5013617;28;20052;-68
2022/04/21 01:43:59;;;;;;;16.98;11.27;;;;;;;-1.42;100.00;90733.19;5013579;28;20045;-68
2022/04/21 01:46:25;;;;;;;18.35;10.68;;;;;;;-1.48;100.00;90726.34;5013531;28;20048;-68
2022/04/21 01:48:50;;;;;;;14.38;9.55;;;;;;;-1.51;100.00;90728.41;5013484;28;20037;-68
2022/04/21 01:51:16;;;;;;;16.80;10.57;;;;;;;-1.58;100.00;90719.97;4995802;28;20491;-68
2022/04/21 01:53:41;;;;;;;16.27;10.45;;;;;;;-1.67;100.00;90726.63;5013461;28;20038;-68
2022/04/21 01:56:08;;;;;;;15.20;10.82;;;;;;;-1.78;100.00;90721.50;5013406;28;20533;-69
2022/04/21 01:58:33;;;;;;;14.60;9.48;;;;;;;-1.75;100.00;90723.63;5013195;28;20038;-68
2022/04/21 02:00:59;;;;;;;18.60;10.27;;;;;;;-1.76;100.00;90716.81;5013130;28;20038;-69
2022/04/21 02:03:24;;;;;;;16.20;10.77;;;;;;;-1.70;100.00;90719.28;5013235;28;20038;-69
2022/04/21 02:09:49;;;;;;;;;;;;;;;-1.81;100.00;90722.78;5019661;28;20609;-79
2022/04/21 02:12:14;;;;;;;19.13;11.05;;;;;;;-1.86;100.00;90720.09;5030648;28;19976;-71
2022/04/21 02:14:40;;;;;;;16.40;11.40;;;;;;;-1.84;100.00;90712.81;5032654;28;20038;-72
2022/04/21 02:17:06;;;;;;;16.95;10.27;;;;;;;-1.87;100.00;90705.50;5032730;28;20108;-72
2022/04/21 02:19:32;;;;;;;16.63;11.13;;;;;;;-1.92;100.00;90702.78;5014820;28;20040;-72
2022/04/21 02:21:58;;;;;;;17.60;11.90;;;;;;;-1.92;100.00;90708.78;5032601;28;20037;-72
2022/04/21 02:24:23;;;;;;;22.80;12.45;;;;;;;-1.98;100.00;90707.16;5032498;28;20029;-72
2022/04/21 02:26:48;;;;;;;33.38;18.60;;;;;;;-1.94;100.00;90717.88;5032506;28;20025;-72
2022/04/21 02:29:14;;;;;;;37.42;21.13;;;;;;;-1.97;100.00;90706.13;5032478;28;20033;-72
2022/04/21 02:31:39;;;;;;;18.67;12.00;;;;;;;-2.03;100.00;90683.63;5032497;28;20474;-73
2022/04/21 02:34:05;;;;;;;16.50;10.50;;;;;;;-1.74;100.00;90699.13;5033174;28;20037;-72
2022/04/21 02:36:30;;;;;;;12.75;8.85;;;;;;;-1.68;100.00;90709.41;5032238;28;20415;-73
2022/04/21 02:38:56;;;;;;;12.65;8.48;;;;;;;-1.75;100.00;90698.34;5032060;28;20071;-73
2022/04/21 02:41:21;;;;;;;10.45;7.82;;;;;;;-1.60;100.00;90710.78;5032501;28;20108;-72
2022/04/21 02:43:47;;;;;;;9.15;6.47;;;;;;;-1.63;100.00;90709.47;5032561;28;20029;-73
2022/04/21 02:46:13;;;;;;;15.07;9.25;;;;;;;-1.79;100.00;90699.84;5032082;28;20627;-73
2022/04/21 02:48:39;;;;;;;15.23;9.23;;;;;;;-1.74;100.00;90715.56;5032000;28;20037;-72
2022/04/21 02:51:05;;;;;;;13.63;9.23;;;;;;;-1.74;100.00;90712.94;5032110;28;20017;-72
2022/04/21 02:59:00;;;;;;;11.98;8.55;;;;;;;-1.88;100.00;90729.97;5031871;28;20068;-73
2022/04/21 03:01:26;;;;;;;11.20;7.88;;;;;;;-1.79;100.00;90725.94;5031917;28;20025;-73
2022/04/21 03:03:54;;;;;;;12.70;9.32;;;;;;;-1.88;100.00;90722.94;5031866;28;20037;-73
2022/04/21 03:06:19;;;;;;;13.75;9.70;;;;;;;-1.99;100.00;90704.78;5031824;28;20026;-72
2022/04/21 03:08:45;;;;;;;19.92;12.27;;;;;;;-1.92;100.00;90723.66;5031690;28;20022;-72
2022/04/21 03:11:10;;;;;;;27.13;16.10;;;;;;;-1.98;100.00;90729.81;5031629;28;20037;-72
2022/04/21 03:13:36;;;;;;;25.38;18.65;;;;;;;-2.00;100.00;90731.88;5013921;28;20033;-72
2022/04/21 03:16:01;;;;;;;26.20;17.77;;;;;;;-1.96;100.00;90730.38;5031611;28;20032;-72
2022/04/21 03:18:27;;;;;;;23.98;17.10;;;;;;;-1.92;100.00;90736.69;5031515;28;20407;-72
2022/04/21 03:26:20;;;;;;;18.88;13.23;;;;;;;-1.93;100.00;90722.84;5031728;28;20586;-72
2022/04/21 03:28:47;;;;;;;25.38;14.80;;;;;;;-1.96;100.00;90720.72;5031700;28;20057;-73
2022/04/21 03:31:12;;;;;;;29.75;16.63;;;;;;;-2.02;100.00;90723.50;5031568;28;20049;-72
2022/04/21 03:33:38;;;;;;;24.95;13.88;;;;;;;-2.00;100.00;90722.25;5031701;28;20138;-73
2022/04/21 03:36:04;;;;;;;20.20;12.70;;;;;;;-1.96;100.00;90722.56;5032282;28;20037;-73
2022/04/21 03:38:29;;;;;;;26.80;17.02;;;;;;;-1.88;100.00;90724.78;5033053;28;20083;-73
2022/04/21 03:40:56;;;;;;;32.33;17.13;;;;;;;-1.82;100.00;90721.97;5033567;28;20482;-73
2022/04/21 03:43:22;;;;;;;27.27;17.20;;;;;;;-1.84;100.00;90718.03;5032214;28;20022;-73
2022/04/21 03:45:48;;;;;;;25.55;15.77;;;;;;;-1.83;100.00;90724.84;5031318;28;20119;-74
2022/04/21 03:48:13;;;;;;;22.40;13.43;;;;;;;-1.81;100.00;90720.16;5031321;28;20022;-72
2022/04/21 03:50:39;;;;;;;29.08;15.70;;;;;;;-1.72;100.00;90729.16;5031242;28;20084;-73
2022/04/21 03:53:05;;;;;;;19.02;12.32;;;;;;;-1.69;100.00;90723.47;5028744;28;20088;-71
2022/04/21 03:55:31;;;;;;;22.48;11.70;;;;;;;-1.68;100.00;90719.03;5018994;28;20179;-72
2022/04/21 03:57:57;;;;;;;19.13;11.88;;;;;;;-1.46;100.00;90724.28;5031016;28;20486;-69
2022/04/21 04:00:22;;;;;;;15.13;10.30;;;;;;;-1.27;100.00;90730.78;5031072;28;20060;-69
2022/04/21 04:02:48;;;;;;;13.50;9.73;;;;;;;-1.19;100.00;90734.78;5031092;28;20088;-70
2022/04/21 04:05:13;;;;;;;17.55;11.55;;;;;;;-1.02;100.00;90732.91;5029872;28;20033;-70
2022/04/21 04:13:07;;;;;;;30.05;20.13;;;;;;;-0.65;100.00;90726.00;5030603;28;20700;-71
2022/04/21 04:15:33;;;;;;;33.25;21.10;;;;;;;-0.56;100.00;90730.78;5030738;28;20033;-72
2022/04/21 04:17:58;;;;;;;36.78;21.60;;;;;;;-0.51;100.00;90729.00;5030811;28;20076;-72
2022/04/21 04:20:23;;;;;;;32.45;18.98;;;;;;;-0.40;100.00;90735.91;5030811;28;20108;-72
2022/04/21 04:22:49;;;;;;;35.78;23.02;;;;;;;-0.21;100.00;90722.47;5030839;28;20045;-73
2022/04/21 04:25:14;;;;;;;33.58;23.27;;;;;;;0.05;100.00;90718.25;5030734;28;20057;-72
2022/04/21 04:27:40;;;;;;;63.45;30.60;;;;;;;0.18;100.00;90726.47;5030893;28;20026;-73
2022/04/21 04:30:07;;;;;;;35.50;21.40;;;;;;;0.39;100.00;90727.38;5030772;28;20033;-73
2022/04/21 04:32:33;;;;;;;35.30;19.90;;;;;;;0.49;100.00;90718.81;5031318;28;20865;-73
2022/04/21 04:34:58;;;;;;;29.00;16.63;;;;;;;0.52;100.00;90700.75;5034501;28;20035;-73
2022/04/21 04:37:24;;;;;;;36.25;20.08;;;;;;;0.76;100.00;90709.00;5034531;28;20069;-73
2022/04/21 04:39:49;;;;;;;26.35;15.88;;;;;;;0.94;100.00;90696.50;5034150;28;20454;-73
2022/04/21 04:42:17;;;;;;;21.77;13.80;;;;;;;1.36;100.00;90705.03;5033601;28;20029;-73
2022/04/21 04:44:49;;;;;;;33.00;19.80;;;;;;;2.01;100.00;90716.66;5033367;28;20792;-73
2022/04/21 04:47:14;;;;;;;27.17;16.30;;;;;;;2.82;100.00;90702.63;5033345;28;20028;-73
2022/04/21 04:49:40;;;;;;;36.80;19.70;;;;;;;3.91;100.00;90700.81;5033480;28;20025;-73
2022/04/21 04:52:06;;;;;;;22.40;14.95;;;;;;;4.14;100.00;90688.03;5033769;28;20049;-73
2022/04/21 04:54:32;;;;;;;25.48;18.02;;;;;;;4.74;100.00;90696.47;5033491;28;20399;-72
2022/04/21 04:56:57;;;;;;;18.35;12.82;;;;;;;5.63;100.00;90707.31;5034052;28;20115;-70
2022/04/21 04:59:23;;;;;;;15.23;11.70;;;;;;;5.67;100.00;90703.81;5034050;28;20037;-71
2022/04/21 05:01:48;;;;;;;14.20;10.85;;;;;;;5.90;100.00;90704.88;5016054;28;20033;-70
2022/04/21 05:04:21;;;;;;;27.15;17.30;;;;;;;5.55;99.33;90714.00;5033197;28;20020;-71
2022/04/21 05:06:54;;;;;;;32.88;19.30;;;;;;;5.46;99.71;90717.53;5030573;28;20028;-71
2022/04/21 05:09:22;;;;;;;43.15;25.23;;;;;;;5.42;100.00;90722.63;5032696;28;20033;-72
2022/04/21 05:11:53;;;;;;;36.42;23.35;;;;;;;5.40;100.00;90714.97;5033100;28;20053;-70
2022/04/21 05:14:19;;;;;;;10.77;7.97;;;;;;;5.63;100.00;90705.44;5032735;28;20041;-71
2022/04/21 05:16:45;;;;;;;25.83;14.27;;;;;;;5.21;100.00;90708.09;5032884;28;20029;-71
2022/04/21 05:19:15;;;;;;;26.88;15.93;;;;;;;4.93;100.00;90715.75;5033027;28;20049;-71
2022/04/21 05:21:41;;;;;;;38.58;19.80;;;;;;;4.96;100.00;90725.75;5033089;28;20029;-70
2022/04/21 05:24:10;;;;;;;34.80;21.80;;;;;;;4.89;100.00;90724.50;5033374;28;20025;-71
2022/04/21 05:26:40;;;;;;;34.67;23.58;;;;;;;4.98;100.00;90720.19;5033431;28;20032;-71
2022/04/21 05:32:03;;;;;;;17.00;12.50;;;;;;;6.25;100.00;90706.19;5033824;28;20051;-71
2022/04/21 05:34:30;;;;;;;28.33;19.73;;;;;;;8.30;93.82;90706.59;5033370;28;20116;-71
2022/04/21 05:36:58;;;;;;;25.42;16.75;;;;;;;8.69;74.20;90709.41;5033547;28;20033;-71
2022/04/21 05:39:24;;;;;;;32.60;21.65;;;;;;;9.22;73.77;90698.00;5033438;28;20080;-71
2022/04/21 05:41:52;;;;;;;14.02;10.68;;;;;;;9.20;69.18;90702.84;5033328;28;20021;-71
2022/04/21 05:44:18;;;;;;;23.42;17.40;;;;;;;8.94;70.96;90699.25;5032657;28;20041;-71
2022/04/21 05:46:44;;;;;;;22.20;8.82;;;;;;;9.63;70.60;90693.50;5033343;28;20060;-71
2022/04/21 05:49:11;;;;;;;12.48;10.15;;;;;;;10.11;64.59;90696.88;5033156;28;20105;-71
2022/04/21 05:51:36;;;;;;;9.70;7.97;;;;;;;8.97;67.13;90706.59;5033187;28;20099;-71
2022/04/21 05:54:04;;;;;;;15.95;12.15;;;;;;;7.11;75.24;90705.84;5033430;28;20482;-71
2022/04/21 05:56:30;;;;;;;7.78;6.88;;;;;;;6.73;81.41;90702.53;5033063;28;20549;-70
2022/04/21 05:58:56;;;;;;;9.75;7.90;;;;;;;6.23;89.72;90705.72;5032998;28;20061;-70
2022/04/21 06:01:21;;;;;;;9.15;7.90;;;;;;;6.52;88.67;90710.03;5033033;28;20036;-71
2022/04/21 06:03:47;;;;;;;16.60;11.38;;;;;;;6.32;89.15;90697.16;5032963;28;20454;-71
2022/04/21 06:06:12;;;;;;;14.93;11.27;;;;;;;6.25;89.91;90706.19;5032689;28;20030;-71
2022/04/21 06:08:39;;;;;;;10.13;8.65;;;;;;;6.01;89.96;90705.50;5032876;28;20063;-71
2022/04/21 06:11:04;;;;;;;15.40;10.98;;;;;;;5.69;93.56;90706.97;5014896;28;20502;-71
2022/04/21 06:13:31;;;;;;;17.25;13.48;;;;;;;5.44;96.64;90704.66;5032367;28;20027;-71
2022/04/21 06:15:59;;;;;;;14.90;11.90;;;;;;;5.37;98.30;90694.44;5032620;28;20034;-71
2022/04/21 06:18:26;;;;;;;20.27;13.25;;;;;;;5.55;99.81;90708.75;5032615;28;20029;-71
2022/04/21 06:20:53;;;;;;;17.52;14.30;;;;;;;5.62;100.00;90706.53;5032688;28;20032;-71
2022/04/21 06:23:19;;;;;;;21.10;15.55;;;;;;;5.70;97.17;90705.91;5013205;28;20064;-71
2022/04/21 06:25:44;;;;;;;49.30;32.15;;;;;;;5.95;97.88;90704.00;5031926;28;20483;-71
2022/04/21 06:28:11;;;;;;;57.85;36.90;;;;;;;6.21;97.14;90704.44;5032034;28;20014;-72
2022/04/21 06:30:37;;;;;;;33.97;23.52;;;;;;;6.11;98.64;90709.84;5031776;28;20038;-72
2022/04/21 06:33:03;;;;;;;22.35;14.50;;;;;;;6.12;96.93;90703.50;5013935;28;20025;-71
2022/04/21 06:35:29;;;;;;;19.95;14.55;;;;;;;6.05;98.64;90698.59;5031145;28;20108;-71
2022/04/21 06:37:55;;;;;;;20.23;16.50;;;;;;;6.26;99.18;90694.56;5031456;28;20096;-71
2022/04/21 06:40:21;;;;;;;23.52;17.85;;;;;;;7.04;96.85;90697.50;5031218;28;20029;-72
2022/04/21 06:42:47;;;;;;;25.58;18.23;;;;;;;7.61;91.21;90701.44;5031227;28;20028;-72
2022/04/21 06:48:03;;;;;;;33.78;23.67;;;;;;;8.43;83.75;90700.50;5031304;28;20509;-73
2022/04/21 06:50:35;;;;;;;37.60;25.85;;;;;;;9.33;80.33;90697.75;5031954;28;20091;-70
2022/04/21 06:53:02;;;;;;;28.83;19.45;;;;;;;9.65;74.04;90708.03;5031938;28;20044;-70
2022/04/21 06:55:28;;;;;;;22.58;16.45;;;;;;;9.91;72.46;90703.53;5031121;28;20548;-70
2022/04/21 06:57:54;;;;;;;16.95;11.98;;;;;;;10.03;71.39;90697.63;5033007;28;20037;-71
2022/04/21 07:00:19;;;;;;;17.55;12.07;;;;;;;10.20;70.80;90702.19;5033484;28;20025;-71
2022/04/21 07:02:45;;;;;;;27.58;20.35;;;;;;;10.13;71.13;90704.53;5031502;28;20036;-71
2022/04/21 07:05:13;;;;;;;18.45;13.65;;;;;;;10.75;70.03;90722.91;5031264;28;20104;-72
2022/04/21 07:07:40;;;;;;;8.90;8.00;;;;;;;11.12;67.27;90710.00;5031533;28;20030;-71
2022/04/21 07:10:07;;;;;;;8.95;7.32;;;;;;;11.38;66.64;90714.19;5031762;28;20021;-71
2022/04/21 07:12:33;;;;;;;6.95;6.25;;;;;;;11.48;63.75;90723.69;5031176;28;20045;-70
2022/04/21 07:15:00;;;;;;;9.27;7.90;;;;;;;11.94;61.83;90719.47;5012867;28;20495;-70
2022/04/21 07:17:26;;;;;;;9.75;8.40;;;;;;;12.03;62.20;90712.22;5013815;28;20039;-69
2022/04/21 07:19:52;;;;;;;11.65;9.50;;;;;;;11.47;64.42;90722.13;5031564;28;20104;-72
2022/04/21 07:22:22;;;;;;;11.60;10.13;;;;;;;11.53;63.99;90726.19;5031453;28;20088;-73
2022/04/21 07:24:47;;;;;;;15.65;11.40;;;;;;;11.83;62.38;90713.72;5031445;28;20031;-72
2022/04/21 07:27:13;;;;;;;9.15;8.05;;;;;;;12.70;60.07;90729.97;5031450;28;20037;-69
2022/04/21 07:29:39;;;;;;;23.83;15.65;;;;;;;12.36;59.22;90738.22;5031372;28;20112;-70
2022/04/21 07:32:05;;;;;;;32.25;22.02;;;;;;;11.37;63.88;90739.25;5031332;28;20108;-69
2022/04/21 07:34:30;;;;;;;26.27;17.13;;;;;;;11.53;64.20;90725.41;5011329;28;20402;-69
2022/04/21 07:36:56;;;;;;;17.23;11.25;;;;;;;11.52;62.84;90727.31;5011252;28;20030;-69
2022/04/21 07:39:21;;;;;;;14.05;9.73;;;;;;;12.80;61.05;90726.16;5011189;28;20431;-69
2022/04/21 07:41:47;;;;;;;17.63;12.60;;;;;;;12.92;58.06;90728.84;5011266;28;20506;-70
2022/04/21 07:44:12;;;;;;;15.40;11.15;;;;;;;12.96;58.00;90734.34;5011229;28;20029;-70
2022/04/21 07:46:38;;;;;;;20.77;12.20;;;;;;;13.62;57.37;90731.69;5009686;28;20111;-72
2022/04/21 07:51:48;;;;;;;13.68;8.85;;;;;;;13.93;57.99;90737.31;5011408;28;20080;-72
2022/04/21 07:54:13;;;;;;;11.02;9.80;;;;;;;13.52;57.40;90743.56;5010877;28;20041;-70
2022/04/21 07:56:39;;;;;;;8.85;7.93;;;;;;;13.02;58.64;90735.69;5022997;28;20028;-68
2022/04/21 07:59:04;;;;;;;13.00;10.07;;;;;;;12.93;60.30;90730.41;5030129;28;20061;-69
2022/04/21 08:01:30;;;;;;;13.05;10.43;;;;;;;12.50;59.09;90741.44;5012330;28;20105;-71
2022/04/21 08:04:01;;;;;;;10.93;8.23;;;;;;;13.18;57.94;90728.66;5029947;28;20108;-70
2022/04/21 08:06:27;;;;;;;16.27;10.00;;;;;;;13.42;58.18;90739.44;5030777;28;20052;-69
2022/04/21 08:08:52;;;;;;;15.95;11.90;;;;;;;13.37;59.05;90742.31;5016058;28;20138;-69
2022/04/21 08:11:18;;;;;;;23.48;13.55;;;;;;;12.09;61.43;90737.59;5033879;28;20045;-69
2022/04/21 08:13:43;;;;;;;21.40;15.00;;;;;;;11.72;65.66;90733.81;5033750;28;20037;-70
2022/04/21 08:16:09;;;;;;;29.58;20.52;;;;;;;12.17;64.42;90752.00;5033994;28;20033;-69
2022/04/21 08:18:34;;;;;;;18.50;13.23;;;;;;;11.45;64.75;90735.00;5033945;28;20033;-69
2022/04/21 08:20:59;;;;;;;12.32;9.32;;;;;;;11.63;65.77;90743.72;5034485;28;20029;-68
2022/04/21 08:23:25;;;;;;;13.77;10.50;;;;;;;11.90;64.39;90735.31;5033805;28;20450;-69
2022/04/21 08:34:05;;;;;;;13.80;9.65;;;;;;;12.27;63.39;90747.03;5033780;28;20036;-68
2022/04/21 08:36:31;;;;;;;13.70;9.63;;;;;;;12.21;62.62;90745.69;5034171;28;20029;-69
2022/04/21 08:38:56;;;;;;;13.60;9.50;;;;;;;11.86;64.08;90737.06;5034210;28;20025;-68
2022/04/21 08:41:27;;;;;;;20.17;13.05;;;;;;;12.47;63.74;90753.53;5034292;28;20025;-69
2022/04/21 08:43:55;;;;;;;15.15;11.60;;;;;;;12.78;63.73;90749.69;5034211;28;20057;-68
2022/04/21 08:46:24;;;;;;;16.88;13.45;;;;;;;12.96;63.29;90747.69;5033803;28;20041;-69
2022/04/21 08:48:51;;;;;;;16.15;8.60;;;;;;;12.98;60.01;90734.78;5033241;28;20025;-69
2022/04/21 08:51:19;;;;;;;14.10;9.95;;;;;;;12.39;61.97;90749.03;5033437;28;20021;-70
2022/04/21 08:53:44;;;;;;;11.93;9.80;;;;;;;11.50;66.34;90731.34;5033754;28;20025;-69
2022/04/21 08:56:10;;;;;;;11.65;8.50;;;;;;;10.95;68.81;90737.44;5033835;28;20037;-69
2022/04/21 08:58:36;;;;;;;13.40;9.02;;;;;;;11.18;70.84;90748.66;5033477;28;20514;-70
2022/04/21 09:01:01;;;;;;;16.65;9.50;;;;;;;11.57;70.34;90750.31;5033240;28;20487;-69
2022/04/21 09:03:27;;;;;;;14.13;10.35;;;;;;;11.87;71.33;90743.19;5033366;28;20084;-69
2022/04/21 09:05:52;;;;;;;17.00;11.15;;;;;;;11.88;71.49;90734.09;5033355;28;20045;-69
2022/04/21 09:08:23;;;;;;;11.85;9.18;;;;;;;11.52;74.27;90748.63;5033363;28;20068;-69
2022/04/21 09:11:05;;;;;;;19.30;11.80;;;;;;;11.44;75.58;90744.09;5033651;28;20092;-71
2022/04/21 09:13:43;;;;;;;28.88;13.75;;;;;;;11.23;78.93;90745.88;5033236;28;20021;-69
2022/04/21 09:16:11;;;;;;;17.40;10.05;;;;;;;11.23;82.34;90737.88;5033557;28;20026;-72
2022/04/21 09:18:41;;;;;;;16.42;9.32;;;;;;;11.29;82.10;90736.59;5031947;28;20060;-63
2022/04/21 09:21:11;;;;;;;17.67;9.57;;;;;;;11.30;83.42;90743.47;5032346;28;20033;-65
2022/04/21 09:23:37;;;;;;;16.23;9.70;;;;;;;11.01;85.56;90723.66;5033402;28;20034;-67
2022/04/21 09:26:21;;;;;;;13.02;8.60;;;;;;;11.28;82.28;90746.47;5033418;28;20033;-67
2022/04/21 09:28:57;;;;;;;12.45;8.55;;;;;;;10.92;88.67;90754.03;5015591;28;20441;-66
2022/04/21 09:31:24;;;;;;;9.13;7.45;;;;;;;11.52;81.37;90745.94;5032832;28;20561;-66
2022/04/21 09:33:51;;;;;;;13.25;8.85;;;;;;;11.97;79.22;90748.91;5033239;28;20470;-66
2022/04/21 09:36:16;;;;;;;13.30;7.68;;;;;;;11.56;78.22;90749.53;5033242;28;20104;-67
2022/04/21 09:38:42;;;;;;;14.60;10.25;;;;;;;11.70;81.15;90757.34;5033099;28;20112;-65
2022/04/21 09:41:10;;;;;;;9.80;8.80;;;;;;;11.48;82.69;90760.97;5033313;28;20160;-67
2022/04/21 09:43:37;;;;;;;12.55;8.70;;;;;;;11.85;80.88;90762.16;5033018;28;20060;-67
2022/04/21 09:46:18;;;;;;;12.50;7.57;;;;;;;12.18;78.36;90757.00;5032798;28;20034;-66
2022/04/21 09:48:46;;;;;;;11.40;8.90;;;;;;;12.68;77.99;90748.22;5032983;28;20109;-65
2022/04/21 09:51:15;;;;;;;12.50;8.93;;;;;;;13.22;74.48;90760.84;5033030;28;20479;-65
2022/04/21 09:54:10;;;;;;;16.63;12.32;;;;;;;13.56;72.19;90760.50;5032969;28;20052;-65
2022/04/21 09:56:40;;;;;;;11.23;7.95;;;;;;;15.00;64.68;90762.03;5033073;28;20404;-66
2022/04/21 09:59:11;;;;;;;18.73;11.77;;;;;;;15.89;60.86;90759.09;5033188;28;20479;-66
2022/04/21 10:01:41;;;;;;;16.35;11.48;;;;;;;15.63;59.79;90754.22;5034025;28;20101;-65
2022/04/21 10:04:08;;;;;;;24.38;16.25;;;;;;;15.73;60.62;90756.38;5033739;28;20036;-65
2022/04/21 10:06:38;;;;;;;10.52;8.25;;;;;;;13.56;68.15;90752.47;5033874;28;20100;-65
2022/04/21 10:09:05;;;;;;;10.60;6.82;;;;;;;14.56;64.90;90748.47;5033510;28;20035;-66
2022/04/21 10:11:31;;;;;;;15.63;9.68;;;;;;;14.62;65.37;90749.78;5014742;28;20079;-65
2022/04/21 10:13:57;;;;;;;17.85;10.80;;;;;;;14.87;64.88;90747.09;5032478;28;20049;-67
2022/04/21 10:16:24;;;;;;;32.78;27.45;;;;;;;13.94;72.55;90738.88;5032063;28;20037;-67
2022/04/21 10:18:52;;;;;;;16.33;9.77;;;;;;;14.00;69.17;90747.44;5031568;28;20096;-66
2022/04/21 10:21:54;;;;;;;18.77;12.10;;;;;;;15.69;64.20;90742.09;5014806;28;20080;-65
2022/04/21 10:24:24;;;;;;;7.65;6.50;;;;;;;15.03;61.04;90742.59;4980464;28;20486;-65
2022/04/21 10:26:50;;;;;;;13.63;9.00;;;;;;;14.08;69.68;90741.22;5032328;28;20036;-65
2022/04/21 10:29:17;;;;;;;13.80;9.23;;;;;;;15.18;68.10;90733.81;5032168;28;20036;-65
2022/04/21 10:31:54;;;;;;;9.55;8.38;;;;;;;16.68;57.34;90734.94;5013207;28;20047;-66
2022/04/21 10:34:40;;;;;;;8.60;6.28;;;;;;;16.42;59.17;90736.25;5032069;28;20032;-66
2022/04/21 10:37:17;;;;;;;8.57;5.05;;;;;;;15.31;61.20;90741.81;5032175;28;20538;-65
2022/04/21 10:40:09;;;;;;;9.05;6.22;;;;;;;15.93;60.26;90743.06;5031892;28;20022;-65
2022/04/21 10:42:52;;;;;;;9.73;6.55;;;;;;;16.15;63.86;90742.50;5032317;28;20029;-65
2022/04/21 10:45:27;;;;;;;10.75;8.05;;;;;;;15.35;65.70;90748.06;5031894;28;20029;-65
2022/04/21 10:48:01;;;;;;;8.50;4.97;;;;;;;15.57;61.38;90731.41;5032969;28;20816;-65
2022/04/21 10:50:31;;;;;;;12.27;7.65;;;;;;;15.38;59.91;90740.09;5032571;28;20077;-66
2022/04/21 10:58:36;;;;;;;16.45;12.15;;;;;;;14.16;66.83;90732.28;5031444;28;20517;-66
2022/04/21 11:01:17;;;;;;;16.38;12.90;;;;;;;14.24;68.58;90739.44;5031356;28;20068;-66
2022/04/21 11:03:44;;;;;;;14.48;9.68;;;;;;;16.31;61.61;90721.78;5031472;28;20104;-70
2022/04/21 11:06:15;;;;;;;17.20;12.23;;;;;;;17.44;57.97;90727.31;5031810;28;20396;-71
2022/04/21 11:08:41;;;;;;;6.95;5.90;;;;;;;17.40;55.59;90711.09;5031347;28;20084;-69
2022/04/21 11:11:07;;;;;;;14.13;9.63;;;;;;;17.70;54.44;90707.84;5031481;28;20132;-71
2022/04/21 11:13:39;;;;;;;8.98;5.30;;;;;;;16.08;58.00;90713.56;5031375;28;20124;-71
2022/04/21 11:16:04;;;;;;;7.97;6.30;;;;;;;15.61;61.60;90721.56;5030905;28;20033;-71
2022/04/21 11:18:30;;;;;;;8.13;5.53;;;;;;;15.17;63.86;90720.78;5031308;28;20029;-69
2022/04/21 11:21:26;;;;;;;8.68;6.68;;;;;;;14.56;69.66;90726.28;5031374;28;20506;-69
2022/04/21 11:23:52;;;;;;;14.32;6.43;;;;;;;14.63;72.75;90734.50;4988165;28;20037;-69
2022/04/21 11:26:24;;;;;;;8.73;6.47;;;;;;;15.44;73.47;90717.28;5031094;28;20041;-69
2022/04/21 11:28:50;;;;;;;13.60;5.97;;;;;;;15.27;72.73;90726.41;5031357;28;20021;-69
2022/04/21 11:31:20;;;;;;;12.82;8.27;;;;;;;15.87;68.47;90723.78;5030768;28;20112;-70
2022/04/21 11:33:45;;;;;;;15.20;7.68;;;;;;;16.46;64.93;90722.91;5031031;28;20029;-69
2022/04/21 11:36:13;;;;;;;11.85;8.20;;;;;;;15.71;64.92;90725.66;5031004;28;20036;-69
2022/04/21 11:38:42;;;;;;;9.18;6.55;;;;;;;16.26;60.89;90718.59;5031000;28;20121;-70
2022/04/21 11:41:09;;;;;;;12.25;7.45;;;;;;;16.41;59.89;90718.59;5030530;28;20384;-69
2022/04/21 11:43:36;;;;;;;12.73;10.02;;;;;;;15.80;63.04;90713.66;5030860;28;20116;-69
2022/04/21 11:46:06;;;;;;;11.45;8.20;;;;;;;14.90;67.03;90704.34;5030509;28;20025;-70
2022/04/21 11:48:34;;;;;;;8.65;5.72;;;;;;;14.24;71.83;90717.25;5030905;28;20022;-72
2022/04/21 11:51:01;;;;;;;6.65;5.20;;;;;;;13.77;74.26;90709.66;5030837;28;20618;-70
2022/04/21 11:53:37;;;;;;;8.80;5.70;;;;;;;13.83;79.82;90712.88;5030746;28;20033;-70
2022/04/21 11:56:08;;;;;;;6.78;5.88;;;;;;;14.13;77.25;90710.78;5031308;28;20034;-71
2022/04/21 11:58:41;;;;;;;8.32;5.72;;;;;;;14.02;78.62;90710.44;5030758;28;20577;-71
2022/04/21 12:06:44;;;;;;;12.13;6.90;;;;;;;14.11;77.78;90699.63;5031004;28;20111;-69
2022/04/21 12:09:28;;;;;;;8.05;5.82;;;;;;;14.36;78.01;90706.56;5030770;28;20104;-67
2022/04/21 12:12:01;;;;;;;14.20;7.75;;;;;;;13.95;77.31;90711.00;5030630;28;20123;-67
2022/04/21 12:14:28;;;;;;;6.28;5.25;;;;;;;14.19;75.54;90706.75;5030516;28;20038;-67
2022/04/21 12:17:01;;;;;;;8.05;5.88;;;;;;;14.01;80.04;90711.56;5030285;28;20033;-67
2022/04/21 12:19:38;;;;;;;9.55;5.63;;;;;;;14.47;79.27;90706.88;5030385;28;20475;-67